createdAt,value
2022-12-23T00:00:23.296Z,4.64
2022-12-23T00:03:13.183Z,4.69
2022-12-23T00:05:42.129Z,4.50
2022-12-23T00:08:10.300Z,4.71
2022-12-23T00:10:40.352Z,4.70
2022-12-23T00:13:26.968Z,4.75
2022-12-23T00:16:03.069Z,4.77
2022-12-23T00:18:32.756Z,4.51
2022-12-23T00:21:08.132Z,4.64
2022-12-23T00:23:38.809Z,4.55
2022-12-23T00:26:08.176Z,4.59
2022-12-23T00:28:36.317Z,4.57
2022-12-23T00:31:06.860Z,4.47
2022-12-23T00:33:39.542Z,4.55
2022-12-23T00:36:13.691Z,4.54
2022-12-23T00:38:59.556Z,4.48
2022-12-23T00:41:46.001Z,4.43
2022-12-23T00:44:14.167Z,4.52
2022-12-23T00:46:42.593Z,4.52
2022-12-23T00:49:32.348Z,4.55
2022-12-23T00:52:00.986Z,4.48
2022-12-23T00:54:29.885Z,4.60
2022-12-23T00:56:58.658Z,4.60
2022-12-23T00:59:26.934Z,4.62
2022-12-23T01:02:13.037Z,4.63
2022-12-23T01:05:00.204Z,4.68
2022-12-23T01:07:28.629Z,4.64
2022-12-23T01:09:56.748Z,4.63
2022-12-23T01:12:25.203Z,4.71
2022-12-23T01:14:53.315Z,4.68
2022-12-23T01:17:21.866Z,4.62
2022-12-23T01:19:51.598Z,4.66
2022-12-23T01:22:20.071Z,4.64
2022-12-23T01:24:48.721Z,4.66
2022-12-23T01:27:17.085Z,4.62
2022-12-23T01:29:45.229Z,4.63
2022-12-23T01:32:13.870Z,4.63
2022-12-23T01:34:42.080Z,4.65
2022-12-23T01:37:11.901Z,4.60
2022-12-23T01:39:39.809Z,4.59
2022-12-23T01:42:31.099Z,4.61
2022-12-23T01:45:01.684Z,4.49
2022-12-23T01:47:34.903Z,4.47
2022-12-23T01:50:09.446Z,4.51
2022-12-23T01:52:44.810Z,4.47
2022-12-23T01:55:15.585Z,4.49
2022-12-23T01:57:46.260Z,4.44
2022-12-23T02:00:32.876Z,4.47
2022-12-23T02:03:15.347Z,4.54
2022-12-23T02:05:47.143Z,4.50
2022-12-23T02:08:36.360Z,4.46
2022-12-23T02:11:31.710Z,4.37
2022-12-23T02:14:31.429Z,4.37
2022-12-23T02:17:10.634Z,4.41
2022-12-23T02:20:07.535Z,4.42
2022-12-23T02:23:00.660Z,4.46
2022-12-23T02:25:59.568Z,4.45
2022-12-23T02:28:51.359Z,4.51
2022-12-23T02:31:31.044Z,4.52
2022-12-23T02:34:05.928Z,4.58
2022-12-23T02:36:40.624Z,4.63
2022-12-23T02:39:16.137Z,4.66
2022-12-23T02:41:52.898Z,4.63
2022-12-23T02:44:31.297Z,4.64
2022-12-23T02:47:05.575Z,4.69
2022-12-23T02:49:37.558Z,4.71
2022-12-23T02:52:11.613Z,4.70
2022-12-23T02:54:45.341Z,4.53
2022-12-23T02:57:16.453Z,4.77
2022-12-23T02:59:49.350Z,4.79
2022-12-23T03:02:19.360Z,4.81
2022-12-23T03:04:47.650Z,4.81
2022-12-23T03:07:21.045Z,4.78
2022-12-23T03:09:59.852Z,4.80
2022-12-23T03:12:41.455Z,4.83
2022-12-23T03:15:23.467Z,4.86
2022-12-23T03:18:05.674Z,4.85
2022-12-23T03:20:43.436Z,4.86
2022-12-23T03:23:19.579Z,4.82
2022-12-23T03:25:55.058Z,4.85
2022-12-23T03:28:32.365Z,4.82
2022-12-23T03:31:38.967Z,4.82
2022-12-23T03:34:12.961Z,4.83
2022-12-23T03:36:46.851Z,4.74
2022-12-23T03:39:19.674Z,4.64
2022-12-23T03:41:53.224Z,4.63
2022-12-23T03:44:27.245Z,4.62
2022-12-23T03:47:02.842Z,4.51
2022-12-23T03:49:36.577Z,4.60
2022-12-23T03:52:08.992Z,4.59
2022-12-23T03:54:42.626Z,4.60
2022-12-23T03:57:12.809Z,4.56
2022-12-23T03:59:45.393Z,4.58
2022-12-23T04:02:19.509Z,4.64
2022-12-23T04:05:06.005Z,4.66
2022-12-23T04:07:38.286Z,4.62
2022-12-23T04:10:08.770Z,4.61
2022-12-23T04:12:37.925Z,4.54
2022-12-23T04:15:12.579Z,4.53
2022-12-23T04:17:41.654Z,4.44
2022-12-23T04:20:12.383Z,4.44
2022-12-23T04:22:43.508Z,4.38
2022-12-23T04:25:12.120Z,4.33
2022-12-23T04:27:40.444Z,4.24
2022-12-23T04:30:10.655Z,4.31
2022-12-23T04:32:39.469Z,4.39
2022-12-23T04:35:08.379Z,4.46
2022-12-23T04:37:38.195Z,4.52
2022-12-23T04:40:08.313Z,4.48
2022-12-23T04:42:36.730Z,4.60
2022-12-23T04:45:06.517Z,4.63
2022-12-23T04:47:35.538Z,4.61
2022-12-23T04:50:05.214Z,4.64
2022-12-23T04:52:33.494Z,4.68
2022-12-23T04:55:03.400Z,4.64
2022-12-23T04:57:31.483Z,4.59
2022-12-23T05:00:00.155Z,4.52
2022-12-23T05:02:28.781Z,4.54
2022-12-23T05:04:57.324Z,4.57
2022-12-23T05:07:25.485Z,4.48
2022-12-23T05:09:54.186Z,4.33
2022-12-23T05:12:23.673Z,4.29
2022-12-23T05:14:52.139Z,4.24
2022-12-23T05:17:20.357Z,4.28
2022-12-23T05:19:48.915Z,4.26
2022-12-23T05:22:17.274Z,4.20
2022-12-23T05:24:45.714Z,4.19
2022-12-23T05:27:13.823Z,4.16
2022-12-23T05:29:43.676Z,4.22
2022-12-23T05:32:11.781Z,4.21
2022-12-23T05:34:40.339Z,4.26
2022-12-23T05:37:08.626Z,4.28
2022-12-23T05:39:37.198Z,4.29
2022-12-23T05:42:05.673Z,4.27
2022-12-23T05:44:34.204Z,4.33
2022-12-23T05:47:03.766Z,4.29
2022-12-23T05:49:32.194Z,4.34
2022-12-23T05:52:00.393Z,4.38
2022-12-23T05:54:28.841Z,4.39
2022-12-23T05:56:56.947Z,4.43
2022-12-23T05:59:30.589Z,4.37
2022-12-23T06:01:59.543Z,4.29
2022-12-23T06:04:29.711Z,4.18
2022-12-23T06:06:58.414Z,3.99
2022-12-23T06:09:27.892Z,4.07
2022-12-23T06:11:56.057Z,4.06
2022-12-23T06:14:28.744Z,4.12
2022-12-23T06:16:57.655Z,4.19
2022-12-23T06:19:27.599Z,4.19
2022-12-23T06:21:57.347Z,4.14
2022-12-23T06:24:25.896Z,4.14
2022-12-23T06:26:57.268Z,4.11
2022-12-23T06:29:26.134Z,4.06
2022-12-23T06:31:54.457Z,4.05
2022-12-23T06:34:22.962Z,4.10
2022-12-23T06:36:51.136Z,4.15
2022-12-23T06:39:21.106Z,4.14
2022-12-23T06:41:49.479Z,4.15
2022-12-23T06:44:18.317Z,4.13
2022-12-23T06:46:46.528Z,4.13
2022-12-23T06:49:15.025Z,4.07
2022-12-23T06:51:43.194Z,3.99
2022-12-23T06:54:13.004Z,4.04
2022-12-23T06:56:42.926Z,4.03
2022-12-23T06:59:11.398Z,4.09
2022-12-23T07:01:40.628Z,4.13
2022-12-23T07:04:10.345Z,4.20
2022-12-23T07:06:39.548Z,4.23
2022-12-23T07:09:07.967Z,4.21
2022-12-23T07:11:36.623Z,4.23
2022-12-23T07:14:06.608Z,4.27
2022-12-23T07:16:34.855Z,4.12
2022-12-23T07:19:03.604Z,4.16
2022-12-23T07:21:32.216Z,4.28
2022-12-23T07:24:00.693Z,4.24
2022-12-23T07:26:28.765Z,4.20
2022-12-23T07:28:57.224Z,4.32
2022-12-23T07:31:26.807Z,4.34
2022-12-23T07:33:55.451Z,4.39
2022-12-23T07:36:23.547Z,4.21
2022-12-23T07:38:52.361Z,4.48
2022-12-23T07:41:20.976Z,4.48
2022-12-23T07:43:49.522Z,4.53
2022-12-23T07:46:17.852Z,4.51
2022-12-23T07:48:47.704Z,4.48
2022-12-23T07:51:16.057Z,4.47
2022-12-23T07:53:44.464Z,4.54
2022-12-23T07:56:12.576Z,4.54
2022-12-23T07:58:43.016Z,4.49
2022-12-23T08:01:11.312Z,4.54
2022-12-23T08:03:39.821Z,4.55
2022-12-23T08:06:12.653Z,4.59
2022-12-23T08:08:42.232Z,4.64
2022-12-23T08:11:11.648Z,4.38
2022-12-23T08:13:42.981Z,4.62
2022-12-23T08:16:12.067Z,4.59
2022-12-23T08:18:42.339Z,4.63
2022-12-23T08:21:15.827Z,4.62
2022-12-23T08:23:44.682Z,4.65
2022-12-23T08:26:15.026Z,4.73
2022-12-23T08:28:44.972Z,4.66
2022-12-23T08:31:15.145Z,4.71
2022-12-23T08:33:48.279Z,4.57
2022-12-23T08:36:23.066Z,4.69
2022-12-23T08:38:54.744Z,4.44
2022-12-23T08:41:25.314Z,4.65
2022-12-23T08:43:54.457Z,4.62
2022-12-23T08:46:23.552Z,4.64
2022-12-23T08:48:51.919Z,4.65
2022-12-23T08:51:23.209Z,4.66
2022-12-23T08:53:59.642Z,4.56
2022-12-23T08:56:32.980Z,4.69
2022-12-23T08:59:02.220Z,4.75
2022-12-23T09:01:32.055Z,4.78
2022-12-23T09:04:03.172Z,4.77
2022-12-23T09:06:36.128Z,4.78
2022-12-23T09:09:04.911Z,4.80
2022-12-23T09:11:33.093Z,4.78
2022-12-23T09:14:02.195Z,4.76
2022-12-23T09:16:30.956Z,4.77
2022-12-23T09:18:59.450Z,4.84
2022-12-23T09:21:27.706Z,4.84
2022-12-23T09:23:57.877Z,4.88
2022-12-23T09:26:27.877Z,4.89
2022-12-23T09:28:56.891Z,4.88
2022-12-23T09:31:30.477Z,4.86
2022-12-23T09:34:02.645Z,4.89
2022-12-23T09:36:31.011Z,4.92
2022-12-23T09:39:00.831Z,4.92
2022-12-23T09:41:39.470Z,4.96
2022-12-23T09:44:23.448Z,4.88
2022-12-23T09:46:56.130Z,4.98
2022-12-23T09:49:25.292Z,4.88
2022-12-23T09:51:55.900Z,5.06
2022-12-23T09:54:31.291Z,5.04
2022-12-23T09:57:01.656Z,5.11
2022-12-23T09:59:47.140Z,5.10
2022-12-23T10:02:25.108Z,5.05
2022-12-23T10:05:04.234Z,5.05
2022-12-23T10:07:37.500Z,4.98
2022-12-23T10:10:19.752Z,5.12
2022-12-23T10:12:52.924Z,5.18
2022-12-23T10:15:27.013Z,5.22
2022-12-23T10:17:59.692Z,5.24
2022-12-23T10:20:37.602Z,5.20
2022-12-23T10:23:12.865Z,5.07
2022-12-23T10:25:50.706Z,5.31
2022-12-23T10:28:20.725Z,5.40
2022-12-23T10:31:39.369Z,5.42
2022-12-23T10:33:59.947Z,5.39
2022-12-23T10:36:36.613Z,5.43
2022-12-23T10:39:15.506Z,5.41
2022-12-23T10:41:56.146Z,5.26
2022-12-23T10:44:59.873Z,5.39
2022-12-23T10:47:41.779Z,5.27
2022-12-23T10:50:28.985Z,5.40
2022-12-23T10:53:01.517Z,5.42
2022-12-23T10:55:35.757Z,5.39
2022-12-23T10:58:09.739Z,5.36
2022-12-23T11:00:42.518Z,5.20
2022-12-23T11:03:19.962Z,5.38
2022-12-23T11:05:51.415Z,5.38
2022-12-23T11:08:22.168Z,5.42
2022-12-23T11:10:50.485Z,5.38
2022-12-23T11:13:35.528Z,5.47
2022-12-23T11:16:19.102Z,5.41
2022-12-23T11:18:59.767Z,5.37
2022-12-23T11:21:28.562Z,5.24
2022-12-23T11:24:17.082Z,5.28
2022-12-23T11:26:47.243Z,5.26
2022-12-23T11:29:24.325Z,5.37
2022-12-23T11:31:53.246Z,5.46
2022-12-23T11:34:24.254Z,5.29
2022-12-23T11:37:03.348Z,5.62
2022-12-23T11:39:37.787Z,5.62
2022-12-23T11:42:12.626Z,5.40
2022-12-23T11:44:45.926Z,5.55
2022-12-23T11:47:29.080Z,5.51
2022-12-23T11:49:59.571Z,5.68
2022-12-23T11:52:28.964Z,5.61
2022-12-23T11:54:58.872Z,5.65
2022-12-23T11:57:38.032Z,5.60
2022-12-23T12:00:22.230Z,5.57
2022-12-23T12:02:53.531Z,5.62
2022-12-23T12:05:26.636Z,5.68
2022-12-23T12:08:01.391Z,5.64
2022-12-23T12:10:33.498Z,5.61
2022-12-23T12:13:05.005Z,5.59
2022-12-23T12:15:43.041Z,5.59
2022-12-23T12:18:14.884Z,5.64
2022-12-23T12:20:46.530Z,5.62
2022-12-23T12:23:19.438Z,5.59
2022-12-23T12:25:51.871Z,5.63
2022-12-23T12:28:25.245Z,5.64
2022-12-23T12:31:02.347Z,5.58
2022-12-23T12:33:37.797Z,5.53
2022-12-23T12:36:16.196Z,5.52
2022-12-23T12:38:49.962Z,5.44
2022-12-23T12:41:24.011Z,5.56
2022-12-23T12:44:01.739Z,5.53
2022-12-23T12:46:36.388Z,5.14
2022-12-23T12:49:13.211Z,5.38
2022-12-23T12:51:47.937Z,5.48
2022-12-23T12:54:26.485Z,5.48
2022-12-23T12:56:57.240Z,5.35
2022-12-23T12:59:29.440Z,5.73
2022-12-23T13:02:21.409Z,5.71
2022-12-23T13:05:19.467Z,5.65
2022-12-23T13:08:07.160Z,5.41
2022-12-23T13:10:43.258Z,5.59
2022-12-23T13:13:27.734Z,5.46
2022-12-23T13:16:02.673Z,5.26
2022-12-23T13:18:42.539Z,5.40
2022-12-23T13:21:17.676Z,5.38
2022-12-23T13:23:53.189Z,5.42
2022-12-23T13:26:33.439Z,5.43
2022-12-23T13:29:36.110Z,5.42
2022-12-23T13:32:13.659Z,5.47
2022-12-23T13:34:54.253Z,5.50
2022-12-23T13:37:34.014Z,5.45
2022-12-23T13:40:14.319Z,5.35
2022-12-23T13:42:49.632Z,5.43
2022-12-23T13:45:20.075Z,5.39
2022-12-23T13:48:04.581Z,5.36
2022-12-23T13:50:41.235Z,5.37
2022-12-23T13:53:21.822Z,5.35
2022-12-23T13:55:58.711Z,5.35
2022-12-23T13:58:31.242Z,5.26
2022-12-23T14:01:20.846Z,5.13
2022-12-23T14:03:52.212Z,5.00
2022-12-23T14:06:44.884Z,4.84
2022-12-23T14:09:17.683Z,4.83
2022-12-23T14:11:46.612Z,4.78
2022-12-23T14:14:23.813Z,4.68
2022-12-23T14:17:06.388Z,4.61
2022-12-23T14:20:00.763Z,4.62
2022-12-23T14:22:59.329Z,4.58
2022-12-23T14:25:52.034Z,4.70
2022-12-23T14:28:51.715Z,4.73
2022-12-23T14:31:32.621Z,4.62
2022-12-23T14:34:06.226Z,4.49
2022-12-23T14:36:34.724Z,4.40
2022-12-23T14:39:31.554Z,4.21
2022-12-23T14:42:05.791Z,3.92
2022-12-23T14:44:49.832Z,4.11
2022-12-23T14:47:31.885Z,4.34
2022-12-23T14:50:33.836Z,4.41
2022-12-23T14:53:03.007Z,4.41
2022-12-23T14:55:45.614Z,4.47
2022-12-23T14:58:45.308Z,4.44
2022-12-23T15:01:17.960Z,4.49
2022-12-23T15:03:50.771Z,4.46
2022-12-23T15:06:28.533Z,4.50
2022-12-23T15:08:57.649Z,4.47
2022-12-23T15:11:29.541Z,4.58
2022-12-23T15:14:00.844Z,4.63
2022-12-23T15:16:33.236Z,4.66
2022-12-23T15:19:07.254Z,4.73
2022-12-23T15:21:36.366Z,4.65
2022-12-23T15:24:04.727Z,4.87
2022-12-23T15:26:34.640Z,4.82
2022-12-23T15:29:02.858Z,4.91
2022-12-23T15:31:34.472Z,4.91
2022-12-23T15:34:11.748Z,4.79
2022-12-23T15:36:46.950Z,4.76
2022-12-23T15:39:21.732Z,4.68
2022-12-23T15:41:51.553Z,4.63
2022-12-23T15:44:22.166Z,4.54
2022-12-23T15:46:51.289Z,4.57
2022-12-23T15:49:21.046Z,4.57
2022-12-23T15:52:12.420Z,4.64
2022-12-23T15:54:46.778Z,4.68
2022-12-23T15:57:20.715Z,4.58
2022-12-23T15:59:49.721Z,4.51
2022-12-23T16:02:59.085Z,4.55
2022-12-23T16:05:12.363Z,4.54
2022-12-23T16:07:42.941Z,4.30
2022-12-23T16:10:17.316Z,4.50
2022-12-23T16:12:51.362Z,4.48
2022-12-23T16:15:27.325Z,4.50
2022-12-23T16:18:14.632Z,4.53
2022-12-23T16:20:45.306Z,4.51
2022-12-23T16:23:14.519Z,4.56
2022-12-23T16:25:50.641Z,4.59
2022-12-23T16:28:24.358Z,4.63
2022-12-23T16:30:55.387Z,4.63
2022-12-23T16:33:35.401Z,4.64
2022-12-23T16:36:17.701Z,4.55
2022-12-23T16:38:48.471Z,4.68
2022-12-23T16:41:16.668Z,4.70
2022-12-23T16:43:51.805Z,4.72
2022-12-23T16:46:22.857Z,4.70
2022-12-23T16:48:53.417Z,4.59
2022-12-23T16:51:26.158Z,4.70
2022-12-23T16:53:56.990Z,4.69
2022-12-23T16:56:29.067Z,4.65
2022-12-23T16:59:01.436Z,4.64
2022-12-23T17:01:33.556Z,4.61
2022-12-23T17:04:02.142Z,4.59
2022-12-23T17:06:30.253Z,4.59
2022-12-23T17:08:59.099Z,4.56
2022-12-23T17:11:36.802Z,4.58
2022-12-23T17:14:13.508Z,4.57
2022-12-23T17:16:44.289Z,4.53
2022-12-23T17:19:13.018Z,4.48
2022-12-23T17:21:44.228Z,4.15
2022-12-23T17:24:15.498Z,4.24
2022-12-23T17:26:43.582Z,4.13
2022-12-23T17:29:13.866Z,3.92
2022-12-23T17:31:43.174Z,3.94
2022-12-23T17:34:17.063Z,3.93
2022-12-23T17:36:50.018Z,3.97
2022-12-23T17:39:19.348Z,3.88
2022-12-23T17:41:47.749Z,3.68
2022-12-23T17:44:19.111Z,3.54
2022-12-23T17:46:48.873Z,3.39
2022-12-23T17:49:17.246Z,3.24
2022-12-23T17:51:45.574Z,3.11
2022-12-23T17:54:23.023Z,3.05
2022-12-23T17:56:51.325Z,2.97
2022-12-23T17:59:21.198Z,2.62
2022-12-23T18:01:49.182Z,2.85
2022-12-23T18:04:18.139Z,2.76
2022-12-23T18:06:47.309Z,2.74
2022-12-23T18:09:16.714Z,2.68
2022-12-23T18:11:46.305Z,2.57
2022-12-23T18:14:17.972Z,2.48
2022-12-23T18:16:47.633Z,2.39
2022-12-23T18:19:18.658Z,2.26
2022-12-23T18:21:49.599Z,2.15
2022-12-23T18:24:18.884Z,2.15
2022-12-23T18:26:47.627Z,2.10
2022-12-23T18:29:16.331Z,2.06
2022-12-23T18:31:51.509Z,2.07
2022-12-23T18:34:21.331Z,2.05
2022-12-23T18:36:51.731Z,1.95
2022-12-23T18:39:21.086Z,1.87
2022-12-23T18:41:49.307Z,1.86
2022-12-23T18:44:19.516Z,1.74
2022-12-23T18:46:49.663Z,1.62
2022-12-23T18:49:18.201Z,1.58
2022-12-23T18:51:46.420Z,1.58
2022-12-23T18:54:15.940Z,1.60
2022-12-23T18:56:44.299Z,1.66
2022-12-23T18:59:22.563Z,1.64
2022-12-23T19:01:53.860Z,1.74
2022-12-23T19:04:22.625Z,1.73
2022-12-23T19:06:51.006Z,1.63
2022-12-23T19:09:23.480Z,1.42
2022-12-23T19:11:54.091Z,1.19
2022-12-23T19:14:22.520Z,1.12
2022-12-23T19:16:52.306Z,1.09
2022-12-23T19:19:25.433Z,1.05
2022-12-23T19:21:54.263Z,1.01
2022-12-23T19:24:22.751Z,0.92
2022-12-23T19:26:50.919Z,0.81
2022-12-23T19:29:19.374Z,0.79
2022-12-23T19:31:47.493Z,0.77
2022-12-23T19:34:16.267Z,0.69
2022-12-23T19:36:45.833Z,0.64
2022-12-23T19:39:16.770Z,0.50
2022-12-23T19:41:45.694Z,0.62
2022-12-23T19:44:14.302Z,0.62
2022-12-23T19:46:42.556Z,0.66
2022-12-23T19:49:17.444Z,0.65
2022-12-23T19:51:49.446Z,0.80
2022-12-23T19:54:18.832Z,0.95
2022-12-23T19:56:47.054Z,1.01
2022-12-23T19:59:15.696Z,1.05
2022-12-23T20:01:43.908Z,1.05
2022-12-23T20:04:12.982Z,1.08
2022-12-23T20:06:42.939Z,0.98
2022-12-23T20:09:14.275Z,0.91
2022-12-23T20:11:44.300Z,0.78
2022-12-23T20:14:14.751Z,0.69
2022-12-23T20:16:44.537Z,0.62
2022-12-23T20:19:12.977Z,0.52
2022-12-23T20:21:41.108Z,0.39
2022-12-23T20:24:10.448Z,0.18
2022-12-23T20:26:40.435Z,0.27
2022-12-23T20:29:09.125Z,0.25
2022-12-23T20:31:38.942Z,0.20
2022-12-23T20:34:09.046Z,0.26
2022-12-23T20:36:37.642Z,-0.05
2022-12-23T20:39:09.650Z,0.12
2022-12-23T20:41:39.328Z,0.08
2022-12-23T20:46:56.309Z,0.26
2022-12-23T20:49:25.042Z,0.03
2022-12-23T20:51:53.159Z,-0.11
2022-12-23T20:54:26.378Z,-0.33
2022-12-23T20:56:59.387Z,-0.53
2022-12-23T20:59:27.865Z,-0.75
2022-12-23T21:01:56.715Z,-0.63
2022-12-23T21:04:25.168Z,-0.52
2022-12-23T21:06:53.320Z,-0.51
2022-12-23T21:09:21.811Z,-0.68
2022-12-23T21:11:50.194Z,-0.68
2022-12-23T21:14:20.085Z,-0.72
2022-12-23T21:16:48.369Z,-0.81
2022-12-23T21:19:18.696Z,-0.97
2022-12-23T21:21:49.547Z,-1.05
2022-12-23T21:24:18.710Z,-1.19
2022-12-23T21:26:55.738Z,-1.33
2022-12-23T21:29:27.664Z,-1.18
2022-12-23T21:31:56.294Z,-1.13
2022-12-23T21:34:25.066Z,-1.01
2022-12-23T21:36:53.750Z,-1.17
2022-12-23T21:39:22.218Z,-1.26
2022-12-23T21:41:51.562Z,-1.14
2022-12-23T21:44:21.532Z,-1.16
2022-12-23T21:46:52.661Z,-1.42
2022-12-23T21:49:21.721Z,-1.53
2022-12-23T21:51:49.838Z,-1.64
2022-12-23T21:54:18.213Z,-1.90
2022-12-23T21:56:46.316Z,-1.88
2022-12-23T21:59:16.161Z,-2.04
2022-12-23T22:01:45.135Z,-2.14
2022-12-23T22:04:15.111Z,-2.16
2022-12-23T22:06:44.826Z,-2.09
2022-12-23T22:09:16.283Z,-2.17
2022-12-23T22:11:44.764Z,-2.26
2022-12-23T22:14:15.281Z,-2.35
2022-12-23T22:16:44.129Z,-2.45
2022-12-23T22:19:14.865Z,-2.28
2022-12-23T22:21:43.597Z,-2.12
2022-12-23T22:24:12.717Z,-2.20
2022-12-23T22:26:41.808Z,-2.44
2022-12-23T22:29:11.262Z,-2.66
2022-12-23T22:31:41.333Z,-3.30
2022-12-23T22:34:12.919Z,-2.71
2022-12-23T22:36:42.686Z,-2.47
2022-12-23T22:39:19.511Z,-2.48
2022-12-23T22:41:48.825Z,-2.49
2022-12-23T22:44:17.527Z,-2.30
2022-12-23T22:46:45.857Z,-2.16
2022-12-23T22:49:14.957Z,-2.03
2022-12-23T22:51:45.352Z,-1.93
2022-12-23T22:54:14.228Z,-1.98
2022-12-23T22:56:42.512Z,-1.99
2022-12-23T22:59:20.139Z,-2.17
2022-12-23T23:01:50.357Z,-2.38
2022-12-23T23:04:19.772Z,-2.42
2022-12-23T23:06:49.355Z,-2.42
2022-12-23T23:09:19.792Z,-2.32
2022-12-23T23:11:48.079Z,-2.14
2022-12-23T23:14:16.504Z,-2.12
2022-12-23T23:16:44.672Z,-2.27
2022-12-23T23:19:15.063Z,-2.60
2022-12-23T23:21:43.663Z,-2.42
2022-12-23T23:24:13.629Z,-2.69
2022-12-23T23:26:41.800Z,-2.92
2022-12-23T23:29:10.617Z,-2.99
2022-12-23T23:31:42.479Z,-3.09
2022-12-23T23:34:11.794Z,-3.08
2022-12-23T23:36:40.123Z,-3.14
2022-12-23T23:39:08.732Z,-2.91
2022-12-23T23:41:38.323Z,-2.80
2022-12-23T23:44:06.780Z,-2.72
2022-12-23T23:46:35.380Z,-2.71
2022-12-23T23:49:03.934Z,-2.80
2022-12-23T23:51:32.314Z,-2.90
2022-12-23T23:54:00.779Z,-2.96
2022-12-23T23:56:35.740Z,-3.03
2022-12-23T23:59:07.961Z,-2.99
